sensor_id;sensor_type;location;lat;lon;timestamp;pressure;altitude;pressure_sealevel;temperature;humidity
27623;BME280;15041;45.334;5.622;2023-09-07T00:01:35;99410.34;;;24.97;47.53
27623;BME280;15041;45.334;5.622;2023-09-07T00:04:03;99411.00;;;24.42;50.26
27623;BME280;15041;45.334;5.622;2023-09-07T00:06:32;99412.19;;;24.29;51.35
27623;BME280;15041;45.334;5.622;2023-09-07T00:09:00;99415.41;;;24.07;52.19
27623;BME280;15041;45.334;5.622;2023-09-07T00:11:27;99410.81;;;24.11;52.68
27623;BME280;15041;45.334;5.622;2023-09-07T00:13:54;99415.72;;;23.94;53.33
27623;BME280;15041;45.334;5.622;2023-09-07T00:19:14;99415.13;;;23.88;53.95
27623;BME280;15041;45.334;5.622;2023-09-07T00:21:41;99413.75;;;23.82;54.27
27623;BME280;15041;45.334;5.622;2023-09-07T00:24:08;99411.25;;;24.01;53.60
27623;BME280;15041;45.334;5.622;2023-09-07T00:26:36;99411.94;;;24.22;53.33
27623;BME280;15041;45.334;5.622;2023-09-07T00:29:03;99402.06;;;24.21;52.91
27623;BME280;15041;45.334;5.622;2023-09-07T00:31:32;99405.97;;;24.32;52.66
27623;BME280;15041;45.334;5.622;2023-09-07T00:34:06;99405.97;;;24.32;52.37
27623;BME280;15041;45.334;5.622;2023-09-07T00:36:35;99403.78;;;24.14;53.53
27623;BME280;15041;45.334;5.622;2023-09-07T00:39:02;99412.31;;;24.09;55.13
27623;BME280;15041;45.334;5.622;2023-09-07T00:41:30;99409.31;;;24.14;54.92
27623;BME280;15041;45.334;5.622;2023-09-07T00:43:58;99407.38;;;24.14;54.26
27623;BME280;15041;45.334;5.622;2023-09-07T00:46:25;99409.22;;;24.10;55.29
27623;BME280;15041;45.334;5.622;2023-09-07T00:48:52;99408.06;;;24.11;55.60
27623;BME280;15041;45.334;5.622;2023-09-07T00:51:20;99408.72;;;23.96;56.63
27623;BME280;15041;45.334;5.622;2023-09-07T00:53:48;99406.44;;;24.10;55.21
27623;BME280;15041;45.334;5.622;2023-09-07T00:56:16;99404.38;;;24.19;54.37
27623;BME280;15041;45.334;5.622;2023-09-07T00:58:43;99401.63;;;24.07;55.59
27623;BME280;15041;45.334;5.622;2023-09-07T01:01:11;99399.31;;;23.97;56.38
27623;BME280;15041;45.334;5.622;2023-09-07T01:03:38;99398.16;;;24.10;55.38
27623;BME280;15041;45.334;5.622;2023-09-07T01:06:12;99397.59;;;24.17;55.20
27623;BME280;15041;45.334;5.622;2023-09-07T01:08:44;99394.47;;;24.18;54.65
27623;BME280;15041;45.334;5.622;2023-09-07T01:11:15;99386.91;;;24.15;54.24
27623;BME280;15041;45.334;5.622;2023-09-07T01:13:42;99391.84;;;24.10;54.12
27623;BME280;15041;45.334;5.622;2023-09-07T01:16:10;99391.03;;;24.09;53.88
27623;BME280;15041;45.334;5.622;2023-09-07T01:18:38;99397.44;;;23.89;54.45
27623;BME280;15041;45.334;5.622;2023-09-07T01:21:08;99392.38;;;23.79;55.55
27623;BME280;15041;45.334;5.622;2023-09-07T01:23:40;99389.84;;;23.86;55.95
27623;BME280;15041;45.334;5.622;2023-09-07T01:26:08;99394.22;;;23.87;56.12
27623;BME280;15041;45.334;5.622;2023-09-07T01:28:37;99394.44;;;23.82;56.71
27623;BME280;15041;45.334;5.622;2023-09-07T01:31:05;99389.84;;;23.74;56.89
27623;BME280;15041;45.334;5.622;2023-09-07T01:33:32;99389.59;;;23.55;56.30
27623;BME280;15041;45.334;5.622;2023-09-07T01:36:00;99377.16;;;23.49;57.77
27623;BME280;15041;45.334;5.622;2023-09-07T01:38:27;99373.03;;;23.67;57.49
27623;BME280;15041;45.334;5.622;2023-09-07T01:40:56;99376.75;;;23.59;57.92
27623;BME280;15041;45.334;5.622;2023-09-07T01:43:24;99381.53;;;23.62;57.34
27623;BME280;15041;45.334;5.622;2023-09-07T01:45:51;99384.06;;;23.43;59.82
27623;BME280;15041;45.334;5.622;2023-09-07T01:48:18;99380.47;;;23.10;60.82
27623;BME280;15041;45.334;5.622;2023-09-07T01:50:45;99382.19;;;23.35;59.43
27623;BME280;15041;45.334;5.622;2023-09-07T01:53:13;99384.06;;;23.43;59.10
27623;BME280;15041;45.334;5.622;2023-09-07T01:55:40;99376.13;;;23.41;60.11
27623;BME280;15041;45.334;5.622;2023-09-07T01:58:09;99383.91;;;23.39;60.09
27623;BME280;15041;45.334;5.622;2023-09-07T02:00:36;99382.28;;;23.06;61.12
27623;BME280;15041;45.334;5.622;2023-09-07T02:03:04;99384.91;;;23.23;60.50
27623;BME280;15041;45.334;5.622;2023-09-07T02:05:32;99390.13;;;23.16;61.43
27623;BME280;15041;45.334;5.622;2023-09-07T02:07:59;99391.81;;;23.08;62.83
27623;BME280;15041;45.334;5.622;2023-09-07T02:10:26;99388.56;;;22.94;61.95
27623;BME280;15041;45.334;5.622;2023-09-07T02:12:53;99397.28;;;22.76;63.89
27623;BME280;15041;45.334;5.622;2023-09-07T02:15:23;99408.75;;;22.78;65.20
27623;BME280;15041;45.334;5.622;2023-09-07T02:17:51;99410.13;;;22.43;66.66
27623;BME280;15041;45.334;5.622;2023-09-07T02:20:20;99406.53;;;22.51;66.56
27623;BME280;15041;45.334;5.622;2023-09-07T02:22:48;99409.56;;;22.29;67.57
27623;BME280;15041;45.334;5.622;2023-09-07T02:25:15;99412.72;;;22.48;67.05
27623;BME280;15041;45.334;5.622;2023-09-07T02:27:42;99412.59;;;22.65;66.52
27623;BME280;15041;45.334;5.622;2023-09-07T02:30:10;99414.88;;;22.63;67.88
27623;BME280;15041;45.334;5.622;2023-09-07T02:32:41;99413.22;;;22.41;68.66
27623;BME280;15041;45.334;5.622;2023-09-07T02:35:09;99412.59;;;22.65;66.26
27623;BME280;15041;45.334;5.622;2023-09-07T02:37:37;99408.59;;;22.83;64.94
27623;BME280;15041;45.334;5.622;2023-09-07T02:40:07;99405.88;;;22.74;65.72
27623;BME280;15041;45.334;5.622;2023-09-07T02:42:35;99408.19;;;22.72;65.76
27623;BME280;15041;45.334;5.622;2023-09-07T02:45:03;99405.03;;;22.62;66.19
27623;BME280;15041;45.334;5.622;2023-09-07T02:47:30;99409.19;;;22.68;66.23
27623;BME280;15041;45.334;5.622;2023-09-07T02:49:58;99402.13;;;22.79;65.43
27623;BME280;15041;45.334;5.622;2023-09-07T02:52:26;99406.00;;;22.78;66.04
27623;BME280;15041;45.334;5.622;2023-09-07T02:54:53;99413.81;;;22.76;66.55
27623;BME280;15041;45.334;5.622;2023-09-07T02:57:21;99407.50;;;22.55;67.48
27623;BME280;15041;45.334;5.622;2023-09-07T02:59:48;99410.31;;;22.67;66.45
27623;BME280;15041;45.334;5.622;2023-09-07T03:02:15;99419.16;;;22.52;67.82
27623;BME280;15041;45.334;5.622;2023-09-07T03:04:43;99420.19;;;22.39;68.34
27623;BME280;15041;45.334;5.622;2023-09-07T03:07:11;99419.53;;;22.42;68.00
27623;BME280;15041;45.334;5.622;2023-09-07T03:09:39;99410.44;;;22.50;67.40
27623;BME280;15041;45.334;5.622;2023-09-07T03:12:07;99411.59;;;22.40;67.74
27623;BME280;15041;45.334;5.622;2023-09-07T03:14:34;99421.63;;;22.16;69.07
27623;BME280;15041;45.334;5.622;2023-09-07T03:17:02;99416.69;;;22.30;68.80
27623;BME280;15041;45.334;5.622;2023-09-07T03:19:29;99409.28;;;22.22;69.58
27623;BME280;15041;45.334;5.622;2023-09-07T03:21:57;99412.88;;;22.14;70.11
27623;BME280;15041;45.334;5.622;2023-09-07T03:24:27;99415.25;;;21.95;71.42
27623;BME280;15041;45.334;5.622;2023-09-07T03:26:55;99418.53;;;21.80;71.91
27623;BME280;15041;45.334;5.622;2023-09-07T03:29:23;99409.34;;;21.76;73.49
27623;BME280;15041;45.334;5.622;2023-09-07T03:31:50;99418.47;;;21.97;72.23
27623;BME280;15041;45.334;5.622;2023-09-07T03:34:20;99398.69;;;22.12;70.76
27623;BME280;15041;45.334;5.622;2023-09-07T03:36:47;99410.63;;;22.16;70.27
27623;BME280;15041;45.334;5.622;2023-09-07T03:39:14;99405.13;;;22.16;70.85
27623;BME280;15041;45.334;5.622;2023-09-07T03:41:43;99422.59;;;21.65;73.36
27623;BME280;15041;45.334;5.622;2023-09-07T03:44:10;99418.25;;;21.73;73.60
27623;BME280;15041;45.334;5.622;2023-09-07T03:46:37;99411.44;;;21.79;72.88
27623;BME280;15041;45.334;5.622;2023-09-07T03:49:04;99417.59;;;21.67;73.34
27623;BME280;15041;45.334;5.622;2023-09-07T03:51:32;99418.03;;;21.86;72.30
27623;BME280;15041;45.334;5.622;2023-09-07T03:53:59;99420.75;;;21.95;71.92
27623;BME280;15041;45.334;5.622;2023-09-07T03:56:27;99429.47;;;21.97;71.91
27623;BME280;15041;45.334;5.622;2023-09-07T03:58:55;99427.16;;;22.07;71.23
27623;BME280;15041;45.334;5.622;2023-09-07T04:01:22;99433.06;;;21.89;72.28
27623;BME280;15041;45.334;5.622;2023-09-07T04:03:50;99433.34;;;21.96;71.42
27623;BME280;15041;45.334;5.622;2023-09-07T04:06:17;99427.22;;;21.99;71.06
27623;BME280;15041;45.334;5.622;2023-09-07T04:08:45;99427.59;;;22.18;69.65
27623;BME280;15041;45.334;5.622;2023-09-07T04:11:12;99426.53;;;22.02;70.45
27623;BME280;15041;45.334;5.622;2023-09-07T04:13:40;99419.91;;;22.03;70.32
27623;BME280;15041;45.334;5.622;2023-09-07T04:16:09;99427.22;;;21.99;71.76
27623;BME280;15041;45.334;5.622;2023-09-07T04:18:37;99428.03;;;21.91;72.89
27623;BME280;15041;45.334;5.622;2023-09-07T04:21:05;99432.09;;;21.85;73.05
27623;BME280;15041;45.334;5.622;2023-09-07T04:23:33;99435.63;;;21.94;72.88
27623;BME280;15041;45.334;5.622;2023-09-07T04:26:06;99437.97;;;21.58;75.45
27623;BME280;15041;45.334;5.622;2023-09-07T04:28:34;99440.00;;;21.15;78.40
27623;BME280;15041;45.334;5.622;2023-09-07T04:31:02;99435.97;;;21.12;78.89
27623;BME280;15041;45.334;5.622;2023-09-07T04:33:31;99432.16;;;21.51;76.82
27623;BME280;15041;45.334;5.622;2023-09-07T04:36:07;99433.53;;;21.28;78.27
27623;BME280;15041;45.334;5.622;2023-09-07T04:38:35;99433.19;;;21.21;78.90
27623;BME280;15041;45.334;5.622;2023-09-07T04:41:06;99435.94;;;21.29;78.84
27623;BME280;15041;45.334;5.622;2023-09-07T04:43:33;99440.78;;;21.32;78.28
27623;BME280;15041;45.334;5.622;2023-09-07T04:46:01;99442.75;;;21.06;79.75
27623;BME280;15041;45.334;5.622;2023-09-07T04:48:29;99449.50;;;20.83;81.91
27623;BME280;15041;45.334;5.622;2023-09-07T04:51:00;99442.41;;;20.91;82.21
27623;BME280;15041;45.334;5.622;2023-09-07T04:53:29;99441.13;;;21.22;79.72
27623;BME280;15041;45.334;5.622;2023-09-07T04:55:58;99443.06;;;21.13;80.25
27623;BME280;15041;45.334;5.622;2023-09-07T04:58:25;99445.50;;;21.15;80.11
27623;BME280;15041;45.334;5.622;2023-09-07T05:00:53;99451.78;;;21.24;79.71
27623;BME280;15041;45.334;5.622;2023-09-07T05:03:20;99451.59;;;21.29;78.86
27623;BME280;15041;45.334;5.622;2023-09-07T05:05:53;99454.38;;;20.95;80.48
27623;BME280;15041;45.334;5.622;2023-09-07T05:08:23;99451.44;;;20.83;82.39
27623;BME280;15041;45.334;5.622;2023-09-07T05:10:54;99459.16;;;20.72;83.68
27623;BME280;15041;45.334;5.622;2023-09-07T05:13:22;99464.88;;;21.01;81.81
27623;BME280;15041;45.334;5.622;2023-09-07T05:15:50;99463.91;;;21.06;81.40
27623;BME280;15041;45.334;5.622;2023-09-07T05:18:18;99464.16;;;20.79;83.01
27623;BME280;15041;45.334;5.622;2023-09-07T05:20:46;99473.81;;;20.51;85.51
27623;BME280;15041;45.334;5.622;2023-09-07T05:23:14;99474.84;;;20.72;84.40
27623;BME280;15041;45.334;5.622;2023-09-07T05:25:45;99476.00;;;20.96;82.07
27623;BME280;15041;45.334;5.622;2023-09-07T05:28:14;99485.53;;;20.99;80.09
27623;BME280;15041;45.334;5.622;2023-09-07T05:30:43;99472.44;;;20.96;80.58
27623;BME280;15041;45.334;5.622;2023-09-07T05:33:11;99471.59;;;20.87;81.14
27623;BME280;15041;45.334;5.622;2023-09-07T05:35:39;99475.53;;;21.03;80.77
27623;BME280;15041;45.334;5.622;2023-09-07T05:38:08;99472.94;;;20.98;81.01
27623;BME280;15041;45.334;5.622;2023-09-07T05:40:37;99474.81;;;20.55;83.35
27623;BME280;15041;45.334;5.622;2023-09-07T05:43:07;99484.16;;;20.71;83.81
27623;BME280;15041;45.334;5.622;2023-09-07T05:45:36;99481.59;;;20.83;83.37
27623;BME280;15041;45.334;5.622;2023-09-07T05:48:05;99479.38;;;20.85;82.99
27623;BME280;15041;45.334;5.622;2023-09-07T05:50:34;99469.53;;;20.92;81.78
27623;BME280;15041;45.334;5.622;2023-09-07T05:53:02;99478.44;;;20.98;81.21
27623;BME280;15041;45.334;5.622;2023-09-07T05:55:30;99482.31;;;20.97;81.76
27623;BME280;15041;45.334;5.622;2023-09-07T05:57:58;99490.97;;;20.82;82.62
27623;BME280;15041;45.334;5.622;2023-09-07T06:00:29;99482.56;;;20.87;82.28
27623;BME280;15041;45.334;5.622;2023-09-07T06:02:56;99481.50;;;20.96;82.68
27623;BME280;15041;45.334;5.622;2023-09-07T06:05:23;99486.47;;;20.86;82.81
27623;BME280;15041;45.334;5.622;2023-09-07T06:07:51;99483.88;;;20.89;83.09
27623;BME280;15041;45.334;5.622;2023-09-07T06:10:18;99491.94;;;20.86;83.14
27623;BME280;15041;45.334;5.622;2023-09-07T06:12:47;99485.78;;;20.55;85.10
27623;BME280;15041;45.334;5.622;2023-09-07T06:15:14;99490.13;;;20.56;85.17
27623;BME280;15041;45.334;5.622;2023-09-07T06:17:43;99491.22;;;20.38;86.80
27623;BME280;15041;45.334;5.622;2023-09-07T06:20:11;99486.06;;;20.45;86.14
27623;BME280;15041;45.334;5.622;2023-09-07T06:22:39;99491.91;;;20.69;84.30
27623;BME280;15041;45.334;5.622;2023-09-07T06:25:07;99489.94;;;20.44;85.67
27623;BME280;15041;45.334;5.622;2023-09-07T06:27:34;99492.03;;;20.47;85.87
27623;BME280;15041;45.334;5.622;2023-09-07T06:30:02;99488.00;;;20.44;85.93
27623;BME280;15041;45.334;5.622;2023-09-07T06:32:30;99492.25;;;20.76;82.16
27623;BME280;15041;45.334;5.622;2023-09-07T06:34:59;99499.72;;;20.84;80.30
27623;BME280;15041;45.334;5.622;2023-09-07T06:37:27;99498.72;;;20.80;83.23
27623;BME280;15041;45.334;5.622;2023-09-07T06:39:54;99496.81;;;20.89;82.27
27623;BME280;15041;45.334;5.622;2023-09-07T06:42:21;99498.72;;;20.80;83.21
27623;BME280;15041;45.334;5.622;2023-09-07T06:44:56;99500.78;;;20.57;84.25
27623;BME280;15041;45.334;5.622;2023-09-07T06:47:23;99503.22;;;20.59;84.30
27623;BME280;15041;45.334;5.622;2023-09-07T06:49:51;99501.56;;;20.58;84.14
27623;BME280;15041;45.334;5.622;2023-09-07T06:52:19;99508.38;;;20.69;84.82
27623;BME280;15041;45.334;5.622;2023-09-07T06:54:47;99515.44;;;20.53;83.63
27623;BME280;15041;45.334;5.622;2023-09-07T06:57:14;99512.22;;;20.51;83.89
27623;BME280;15041;45.334;5.622;2023-09-07T06:59:41;99510.44;;;20.55;83.28
27623;BME280;15041;45.334;5.622;2023-09-07T07:02:09;99508.97;;;20.49;84.58
27623;BME280;15041;45.334;5.622;2023-09-07T07:04:36;99510.34;;;20.77;81.00
27623;BME280;15041;45.334;5.622;2023-09-07T07:07:03;99515.00;;;20.76;80.88
27623;BME280;15041;45.334;5.622;2023-09-07T07:09:33;99520.97;;;20.70;81.53
27623;BME280;15041;45.334;5.622;2023-09-07T07:12:01;99522.91;;;20.78;80.40
27623;BME280;15041;45.334;5.622;2023-09-07T07:14:28;99520.53;;;20.93;80.07
27623;BME280;15041;45.334;5.622;2023-09-07T07:16:55;99538.47;;;20.91;80.51
27623;BME280;15041;45.334;5.622;2023-09-07T07:19:23;99530.53;;;20.89;80.91
27623;BME280;15041;45.334;5.622;2023-09-07T07:21:51;99533.47;;;21.01;80.67
27623;BME280;15041;45.334;5.622;2023-09-07T07:24:19;99532.47;;;20.89;80.40
27623;BME280;15041;45.334;5.622;2023-09-07T07:26:47;99536.78;;;20.73;82.17
27623;BME280;15041;45.334;5.622;2023-09-07T07:29:15;99537.84;;;20.94;80.38
27623;BME280;15041;45.334;5.622;2023-09-07T07:31:42;99536.69;;;20.95;80.57
27623;BME280;15041;45.334;5.622;2023-09-07T07:34:09;99534.13;;;21.07;80.07
27623;BME280;15041;45.334;5.622;2023-09-07T07:36:36;99537.22;;;21.14;80.21
27623;BME280;15041;45.334;5.622;2023-09-07T07:39:09;99527.84;;;21.15;81.07
27623;BME280;15041;45.334;5.622;2023-09-07T07:41:37;99534.31;;;21.19;79.90
27623;BME280;15041;45.334;5.622;2023-09-07T07:44:06;99532.53;;;21.23;79.92
27623;BME280;15041;45.334;5.622;2023-09-07T07:46:33;99528.63;;;21.15;81.37
27623;BME280;15041;45.334;5.622;2023-09-07T07:49:01;99522.81;;;21.17;82.01
27623;BME280;15041;45.334;5.622;2023-09-07T07:51:28;99524.13;;;21.28;82.16
27623;BME280;15041;45.334;5.622;2023-09-07T07:53:56;99529.97;;;21.35;83.80
27623;BME280;15041;45.334;5.622;2023-09-07T07:56:23;99530.44;;;21.20;85.33
27623;BME280;15041;45.334;5.622;2023-09-07T07:58:53;99532.53;;;21.40;85.20
27623;BME280;15041;45.334;5.622;2023-09-07T08:01:22;99533.97;;;21.63;84.14
27623;BME280;15041;45.334;5.622;2023-09-07T08:03:52;99531.38;;;21.75;82.77
27623;BME280;15041;45.334;5.622;2023-09-07T08:06:19;99529.28;;;21.80;79.96
27623;BME280;15041;45.334;5.622;2023-09-07T08:08:47;99536.03;;;22.00;80.22
27623;BME280;15041;45.334;5.622;2023-09-07T08:11:14;99532.25;;;22.13;77.70
27623;BME280;15041;45.334;5.622;2023-09-07T08:13:43;99536.75;;;22.26;75.77
27623;BME280;15041;45.334;5.622;2023-09-07T08:16:12;99524.78;;;22.22;73.50
27623;BME280;15041;45.334;5.622;2023-09-07T08:18:41;99535.13;;;22.25;72.94
27623;BME280;15041;45.334;5.622;2023-09-07T08:21:09;99534.25;;;22.50;74.50
27623;BME280;15041;45.334;5.622;2023-09-07T08:23:38;99533.75;;;22.77;74.18
27623;BME280;15041;45.334;5.622;2023-09-07T08:26:05;99529.44;;;22.96;68.76
27623;BME280;15041;45.334;5.622;2023-09-07T08:28:37;99522.31;;;22.95;67.22
27623;BME280;15041;45.334;5.622;2023-09-07T08:31:04;99529.47;;;23.17;65.46
27623;BME280;15041;45.334;5.622;2023-09-07T08:33:31;99526.13;;;23.32;65.51
27623;BME280;15041;45.334;5.622;2023-09-07T08:36:07;99519.06;;;23.43;65.60
27623;BME280;15041;45.334;5.622;2023-09-07T08:38:35;99523.53;;;23.68;64.62
27623;BME280;15041;45.334;5.622;2023-09-07T08:41:02;99528.88;;;23.85;63.84
27623;BME280;15041;45.334;5.622;2023-09-07T08:43:33;99528.25;;;24.12;63.25
27623;BME280;15041;45.334;5.622;2023-09-07T08:46:11;99534.69;;;24.16;63.34
27623;BME280;15041;45.334;5.622;2023-09-07T08:48:42;99521.84;;;24.32;63.02
27623;BME280;15041;45.334;5.622;2023-09-07T08:51:11;99526.00;;;24.50;63.00
27623;BME280;15041;45.334;5.622;2023-09-07T08:53:40;99521.84;;;24.56;61.88
27623;BME280;15041;45.334;5.622;2023-09-07T08:56:12;99521.78;;;24.77;62.01
27623;BME280;15041;45.334;5.622;2023-09-07T08:58:39;99520.03;;;24.84;61.11
27623;BME280;15041;45.334;5.622;2023-09-07T09:01:07;99518.09;;;24.85;60.46
27623;BME280;15041;45.334;5.622;2023-09-07T09:03:35;99520.50;;;24.86;61.32
27623;BME280;15041;45.334;5.622;2023-09-07T09:06:03;99518.16;;;25.12;61.00
27623;BME280;15041;45.334;5.622;2023-09-07T09:08:43;99524.09;;;25.26;60.46
27623;BME280;15041;45.334;5.622;2023-09-07T09:11:10;99518.09;;;25.36;60.98
27623;BME280;15041;45.334;5.622;2023-09-07T09:13:39;99506.72;;;25.53;60.90
27623;BME280;15041;45.334;5.622;2023-09-07T09:16:07;99509.97;;;25.55;60.65
27623;BME280;15041;45.334;5.622;2023-09-07T09:18:34;99512.16;;;25.77;60.27
27623;BME280;15041;45.334;5.622;2023-09-07T09:21:01;99521.38;;;25.81;59.79
27623;BME280;15041;45.334;5.622;2023-09-07T09:23:32;99513.47;;;25.95;59.62
27623;BME280;15041;45.334;5.622;2023-09-07T09:26:01;99515.91;;;26.12;59.25
27623;BME280;15041;45.334;5.622;2023-09-07T09:28:30;99519.75;;;25.80;58.37
27623;BME280;15041;45.334;5.622;2023-09-07T09:30:59;99504.19;;;26.03;57.38
27623;BME280;15041;45.334;5.622;2023-09-07T09:33:26;99511.00;;;26.21;56.09
27623;BME280;15041;45.334;5.622;2023-09-07T09:35:54;99513.88;;;26.40;54.60
27623;BME280;15041;45.334;5.622;2023-09-07T09:38:22;99510.38;;;26.28;52.11
27623;BME280;15041;45.334;5.622;2023-09-07T09:40:49;99503.97;;;26.39;51.80
27623;BME280;15041;45.334;5.622;2023-09-07T09:43:19;99507.63;;;26.43;51.20
27623;BME280;15041;45.334;5.622;2023-09-07T09:45:48;99505.66;;;26.59;51.62
27623;BME280;15041;45.334;5.622;2023-09-07T09:48:16;99501.00;;;26.63;51.17
27623;BME280;15041;45.334;5.622;2023-09-07T09:50:46;99499.41;;;26.62;50.76
27623;BME280;15041;45.334;5.622;2023-09-07T09:53:15;99505.00;;;26.66;50.14
27623;BME280;15041;45.334;5.622;2023-09-07T09:55:44;99495.53;;;26.82;49.65
27623;BME280;15041;45.334;5.622;2023-09-07T09:58:13;99503.56;;;26.87;49.28
27623;BME280;15041;45.334;5.622;2023-09-07T10:00:43;99498.59;;;26.96;49.85
27623;BME280;15041;45.334;5.622;2023-09-07T10:03:13;99488.84;;;27.02;50.40
27623;BME280;15041;45.334;5.622;2023-09-07T10:05:44;99487.81;;;27.10;50.34
27623;BME280;15041;45.334;5.622;2023-09-07T10:08:13;99488.97;;;27.25;49.85
27623;BME280;15041;45.334;5.622;2023-09-07T10:10:42;99482.38;;;27.14;50.20
27623;BME280;15041;45.334;5.622;2023-09-07T10:13:13;99492.03;;;26.85;49.40
27623;BME280;15041;45.334;5.622;2023-09-07T10:15:42;99494.25;;;27.14;49.62
27623;BME280;15041;45.334;5.622;2023-09-07T10:18:11;99484.75;;;27.31;49.10
27623;BME280;15041;45.334;5.622;2023-09-07T10:20:53;99481.81;;;27.62;48.71
27623;BME280;15041;45.334;5.622;2023-09-07T10:23:22;99475.94;;;27.67;48.63
27623;BME280;15041;45.334;5.622;2023-09-07T10:25:51;99472.84;;;27.49;49.36
27623;BME280;15041;45.334;5.622;2023-09-07T10:28:20;99468.28;;;27.60;49.35
27623;BME280;15041;45.334;5.622;2023-09-07T10:30:59;99463.13;;;27.59;49.27
27623;BME280;15041;45.334;5.622;2023-09-07T10:33:29;99467.72;;;27.70;49.13
27623;BME280;15041;45.334;5.622;2023-09-07T10:35:56;99464.19;;;27.73;49.43
27623;BME280;15041;45.334;5.622;2023-09-07T10:38:24;99469.16;;;27.64;48.74
27623;BME280;15041;45.334;5.622;2023-09-07T10:40:55;99465.22;;;27.65;47.75
27623;BME280;15041;45.334;5.622;2023-09-07T10:43:25;99458.22;;;27.71;46.53
27623;BME280;15041;45.334;5.622;2023-09-07T10:45:53;99455.31;;;27.83;46.76
27623;BME280;15041;45.334;5.622;2023-09-07T10:48:21;99454.81;;;28.00;44.93
27623;BME280;15041;45.334;5.622;2023-09-07T10:50:49;99453.22;;;27.99;44.82
27623;BME280;15041;45.334;5.622;2023-09-07T10:53:25;99446.91;;;28.02;45.15
27623;BME280;15041;45.334;5.622;2023-09-07T10:55:53;99446.53;;;28.26;44.90
27623;BME280;15041;45.334;5.622;2023-09-07T10:58:25;99436.38;;;28.37;42.94
27623;BME280;15041;45.334;5.622;2023-09-07T11:00:53;99448.81;;;28.43;44.30
27623;BME280;15041;45.334;5.622;2023-09-07T11:03:22;99444.44;;;28.42;44.48
27623;BME280;15041;45.334;5.622;2023-09-07T11:05:51;99444.28;;;28.35;44.40
27623;BME280;15041;45.334;5.622;2023-09-07T11:08:20;99443.56;;;28.38;44.99
27623;BME280;15041;45.334;5.622;2023-09-07T11:10:47;99441.34;;;28.47;44.52
27623;BME280;15041;45.334;5.622;2023-09-07T11:13:16;99440.25;;;28.29;44.02
27623;BME280;15041;45.334;5.622;2023-09-07T11:15:44;99436.38;;;28.37;44.29
27623;BME280;15041;45.334;5.622;2023-09-07T11:18:11;99436.28;;;28.53;44.07
27623;BME280;15041;45.334;5.622;2023-09-07T11:20:40;99432.88;;;28.66;44.25
27623;BME280;15041;45.334;5.622;2023-09-07T11:23:08;99425.78;;;28.69;44.54
27623;BME280;15041;45.334;5.622;2023-09-07T11:25:36;99418.69;;;28.72;44.59
27623;BME280;15041;45.334;5.622;2023-09-07T11:28:04;99432.84;;;28.63;44.53
27623;BME280;15041;45.334;5.622;2023-09-07T11:30:32;99420.56;;;28.94;44.41
27623;BME280;15041;45.334;5.622;2023-09-07T11:33:01;99414.25;;;28.97;44.08
27623;BME280;15041;45.334;5.622;2023-09-07T11:35:29;99421.53;;;29.05;44.16
27623;BME280;15041;45.334;5.622;2023-09-07T11:37:59;99407.03;;;29.22;44.03
27623;BME280;15041;45.334;5.622;2023-09-07T11:40:26;99406.72;;;29.27;43.63
27623;BME280;15041;45.334;5.622;2023-09-07T11:42:54;99397.84;;;29.18;44.12
27623;BME280;15041;45.334;5.622;2023-09-07T11:45:21;99406.59;;;29.16;43.62
27623;BME280;15041;45.334;5.622;2023-09-07T11:47:48;99405.75;;;29.12;43.75
27623;BME280;15041;45.334;5.622;2023-09-07T11:50:17;99414.16;;;28.90;42.89
27623;BME280;15041;45.334;5.622;2023-09-07T11:52:44;99403.69;;;29.06;43.71
27623;BME280;15041;45.334;5.622;2023-09-07T11:55:13;99404.31;;;29.25;42.78
27623;BME280;15041;45.334;5.622;2023-09-07T11:57:41;99404.50;;;29.43;42.74
27623;BME280;15041;45.334;5.622;2023-09-07T12:00:09;99407.38;;;29.50;42.78
27623;BME280;15041;45.334;5.622;2023-09-07T12:02:38;99397.34;;;29.42;42.59
27623;BME280;15041;45.334;5.622;2023-09-07T12:05:06;99395.41;;;29.86;42.00
27623;BME280;15041;45.334;5.622;2023-09-07T12:07:35;99391.41;;;29.80;42.38
27623;BME280;15041;45.334;5.622;2023-09-07T12:10:03;99395.56;;;30.00;42.09
27623;BME280;15041;45.334;5.622;2023-09-07T12:12:32;99378.03;;;29.99;41.79
27623;BME280;15041;45.334;5.622;2023-09-07T12:15:00;99382.69;;;29.85;41.78
27623;BME280;15041;45.334;5.622;2023-09-07T12:17:29;99378.72;;;29.86;41.48
27623;BME280;15041;45.334;5.622;2023-09-07T12:19:56;99379.91;;;29.85;41.44
27623;BME280;15041;45.334;5.622;2023-09-07T12:22:23;99378.72;;;29.86;41.66
27623;BME280;15041;45.334;5.622;2023-09-07T12:24:51;99382.00;;;29.95;41.31
27623;BME280;15041;45.334;5.622;2023-09-07T12:27:19;99372.19;;;29.68;41.26
27623;BME280;15041;45.334;5.622;2023-09-07T12:29:47;99370.53;;;30.07;41.03
27623;BME280;15041;45.334;5.622;2023-09-07T12:32:14;99373.22;;;29.93;40.54
27623;BME280;15041;45.334;5.622;2023-09-07T12:34:42;99369.38;;;30.08;40.94
27623;BME280;15041;45.334;5.622;2023-09-07T12:37:09;99364.00;;;30.32;40.72
27623;BME280;15041;45.334;5.622;2023-09-07T12:39:36;99364.75;;;30.26;42.00
27623;BME280;15041;45.334;5.622;2023-09-07T12:42:04;99364.81;;;30.33;40.25
27623;BME280;15041;45.334;5.622;2023-09-07T12:44:31;99360.00;;;30.30;40.22
27623;BME280;15041;45.334;5.622;2023-09-07T12:47:00;99361.25;;;30.36;40.59
27623;BME280;15041;45.334;5.622;2023-09-07T12:49:27;99361.69;;;30.45;41.04
27623;BME280;15041;45.334;5.622;2023-09-07T12:51:54;99346.56;;;30.42;40.91
27623;BME280;15041;45.334;5.622;2023-09-07T12:54:21;99352.31;;;30.13;38.74
27623;BME280;15041;45.334;5.622;2023-09-07T12:56:49;99352.59;;;30.01;39.47
27623;BME280;15041;45.334;5.622;2023-09-07T12:59:16;99343.69;;;30.32;38.68
27623;BME280;15041;45.334;5.622;2023-09-07T13:01:44;99350.06;;;30.29;39.07
27623;BME280;15041;45.334;5.622;2023-09-07T13:04:13;99341.41;;;29.94;38.32
27623;BME280;15041;45.334;5.622;2023-09-07T13:06:40;99348.81;;;30.19;37.69
27623;BME280;15041;45.334;5.622;2023-09-07T13:09:08;99341.28;;;30.30;38.16